createdAt,value
2023-03-11T00:04:14.080Z,-0.64
2023-03-11T00:09:36.266Z,-0.65
2023-03-11T00:14:58.500Z,-0.60
2023-03-11T00:20:27.126Z,-0.63
2023-03-11T00:25:51.701Z,-0.61
2023-03-11T00:31:14.947Z,-0.60
2023-03-11T00:36:42.976Z,-0.58
2023-03-11T00:42:05.362Z,-0.56
2023-03-11T00:47:29.670Z,-0.61
2023-03-11T00:52:53.545Z,-0.61
2023-03-11T00:58:18.505Z,-0.66
2023-03-11T01:03:40.976Z,-0.69
2023-03-11T01:09:03.189Z,-0.67
2023-03-11T01:14:25.430Z,-0.64
2023-03-11T01:19:47.816Z,-0.65
2023-03-11T01:25:10.776Z,-0.66
2023-03-11T01:30:35.778Z,-0.64
2023-03-11T01:35:58.646Z,-0.67
2023-03-11T01:41:20.975Z,-0.69
2023-03-11T01:47:01.824Z,-0.72
2023-03-11T01:52:25.415Z,-0.75
2023-03-11T01:57:50.050Z,-0.74
2023-03-11T02:03:19.729Z,-0.70
2023-03-11T02:08:36.619Z,-0.72
2023-03-11T02:14:01.795Z,-0.69
2023-03-11T02:19:28.951Z,-0.66
2023-03-11T02:25:17.949Z,-0.64
2023-03-11T02:30:41.970Z,-0.66
2023-03-11T02:36:05.854Z,-0.66
2023-03-11T02:41:28.424Z,-0.67
2023-03-11T02:46:52.116Z,-0.67
2023-03-11T02:52:14.430Z,-0.67
2023-03-11T02:57:36.636Z,-0.67
2023-03-11T03:02:59.080Z,-0.69
2023-03-11T03:08:21.517Z,-0.70
2023-03-11T03:13:45.247Z,-0.69
2023-03-11T03:19:07.536Z,-0.69
2023-03-11T03:24:29.926Z,-0.68
2023-03-11T03:29:52.159Z,-0.70
2023-03-11T03:35:15.161Z,-0.70
2023-03-11T03:40:37.182Z,-0.70
2023-03-11T03:46:09.599Z,-0.68
2023-03-11T03:51:32.969Z,-0.66
2023-03-11T03:56:55.155Z,-0.68
2023-03-11T04:02:17.737Z,-0.66
2023-03-11T04:07:41.282Z,-0.66
2023-03-11T04:13:03.601Z,-0.65
2023-03-11T04:18:26.223Z,-0.65
2023-03-11T04:23:48.665Z,-0.67
2023-03-11T04:29:11.040Z,-0.65
2023-03-11T04:34:34.333Z,-0.63
2023-03-11T04:39:57.274Z,-0.67
2023-03-11T04:45:20.497Z,-0.75
2023-03-11T04:50:42.857Z,-0.81
2023-03-11T04:56:05.042Z,-0.87
2023-03-11T05:01:27.288Z,-0.89
2023-03-11T05:06:51.370Z,-0.90
2023-03-11T05:12:14.270Z,-0.88
2023-03-11T05:17:36.707Z,-0.88
2023-03-11T05:22:58.956Z,-0.87
2023-03-11T05:28:21.184Z,-0.89
2023-03-11T05:33:43.430Z,-0.93
2023-03-11T05:39:05.656Z,-0.94
2023-03-11T05:44:28.017Z,-0.93
2023-03-11T05:49:50.711Z,-0.89
2023-03-11T05:55:13.406Z,-0.91
2023-03-11T06:00:37.397Z,-0.89
2023-03-11T06:06:07.297Z,-0.87
2023-03-11T06:11:30.622Z,-0.88
2023-03-11T06:16:53.288Z,-0.88
2023-03-11T06:22:15.644Z,-0.87
2023-03-11T06:27:38.030Z,-0.88
2023-03-11T06:33:01.975Z,-0.88
2023-03-11T06:38:24.256Z,-0.87
2023-03-11T06:43:47.332Z,-0.91
2023-03-11T06:49:10.341Z,-0.89
2023-03-11T06:54:32.606Z,-0.91
2023-03-11T06:59:56.091Z,-0.91
2023-03-11T07:05:18.639Z,-0.88
2023-03-11T07:10:40.897Z,-0.86
2023-03-11T07:16:08.694Z,-0.82
2023-03-11T07:21:34.583Z,-0.83
2023-03-11T07:26:56.915Z,-0.84
2023-03-11T07:32:22.489Z,-0.84
2023-03-11T07:37:44.843Z,-0.90
2023-03-11T07:43:07.128Z,-0.91
2023-03-11T07:48:29.512Z,-0.94
2023-03-11T07:53:52.681Z,-1.02
2023-03-11T07:59:17.204Z,-1.08
2023-03-11T08:04:39.995Z,-1.10
2023-03-11T08:10:02.294Z,-1.13
2023-03-11T08:15:25.144Z,-1.13
2023-03-11T08:20:49.150Z,-1.12
2023-03-11T08:26:12.404Z,-1.11
2023-03-11T08:31:39.253Z,-1.07
2023-03-11T08:37:01.631Z,-1.13
2023-03-11T08:42:24.929Z,-1.16
2023-03-11T08:47:48.960Z,-1.21
2023-03-11T08:53:11.182Z,-1.26
2023-03-11T08:58:33.907Z,-1.21
2023-03-11T09:03:57.012Z,-1.18
2023-03-11T09:09:22.095Z,-1.11
2023-03-11T09:14:44.610Z,-1.09
2023-03-11T09:20:07.593Z,-1.13
2023-03-11T09:25:32.338Z,-1.16
2023-03-11T09:30:54.744Z,-1.14
2023-03-11T09:36:21.512Z,-1.17
2023-03-11T09:42:05.868Z,-1.07
2023-03-11T09:47:55.818Z,-1.03
2023-03-11T09:53:35.159Z,-1.04
2023-03-11T09:59:02.325Z,-0.99
2023-03-11T10:04:35.198Z,-0.98
2023-03-11T10:10:06.628Z,-0.93
2023-03-11T10:15:56.740Z,-0.65
2023-03-11T10:21:42.488Z,-0.53
2023-03-11T10:27:12.792Z,-0.53
2023-03-11T10:32:57.951Z,-0.31
2023-03-11T10:38:42.671Z,-0.36
2023-03-11T10:44:27.608Z,-0.59
2023-03-11T10:49:49.873Z,-0.52
2023-03-11T10:55:21.405Z,-0.46
2023-03-11T11:00:49.968Z,-0.51
2023-03-11T11:06:34.800Z,-0.47
2023-03-11T11:12:08.902Z,-0.48
2023-03-11T11:17:46.306Z,-0.54
2023-03-11T11:23:18.765Z,-0.38
2023-03-11T11:28:41.333Z,-0.40
2023-03-11T11:34:09.018Z,-0.35
2023-03-11T11:39:35.609Z,-0.17
2023-03-11T11:45:04.951Z,-0.05
2023-03-11T11:50:50.565Z,0.03
2023-03-11T11:56:14.286Z,0.12
2023-03-11T12:01:50.967Z,0.04
2023-03-11T12:07:41.463Z,0.04
2023-03-11T12:13:12.101Z,0.01
2023-03-11T12:18:47.573Z,-0.05
2023-03-11T12:24:43.057Z,-0.22
2023-03-11T12:30:13.578Z,-0.23
2023-03-11T12:35:45.216Z,-0.20
2023-03-11T12:41:42.534Z,-0.19
2023-03-11T12:47:16.109Z,-0.01
2023-03-11T12:52:40.876Z,0.10
2023-03-11T12:58:13.380Z,0.23
2023-03-11T13:03:55.254Z,0.16
2023-03-11T13:09:23.546Z,0.17
2023-03-11T13:14:47.626Z,0.19
2023-03-11T13:20:15.150Z,0.23
2023-03-11T13:25:56.887Z,0.25
2023-03-11T13:31:47.719Z,0.27
2023-03-11T13:37:30.468Z,0.69
2023-03-11T13:43:00.899Z,0.80
2023-03-11T13:48:37.709Z,0.46
2023-03-11T13:54:11.363Z,0.31
2023-03-11T13:59:38.539Z,0.19
2023-03-11T14:05:23.216Z,0.36
2023-03-11T14:10:47.042Z,0.31
2023-03-11T14:16:36.530Z,0.37
2023-03-11T14:22:03.619Z,0.31
2023-03-11T14:27:28.637Z,0.79
2023-03-11T14:32:54.701Z,0.90
2023-03-11T14:38:32.001Z,0.70
2023-03-11T14:43:58.467Z,0.86
2023-03-11T14:49:25.078Z,2.35
2023-03-11T14:54:50.144Z,1.39
2023-03-11T15:00:15.453Z,0.84
2023-03-11T15:05:51.105Z,1.19
2023-03-11T15:11:29.705Z,1.69
2023-03-11T15:16:53.881Z,1.18
2023-03-11T15:22:36.633Z,0.67
2023-03-11T15:27:59.870Z,0.63
2023-03-11T15:33:38.661Z,1.81
2023-03-11T15:39:20.633Z,1.25
2023-03-11T15:45:00.457Z,1.22
2023-03-11T15:50:52.393Z,1.84
2023-03-11T15:56:08.298Z,1.40
2023-03-11T16:01:30.821Z,1.34
2023-03-11T16:07:07.424Z,1.72
2023-03-11T16:12:28.337Z,1.75
2023-03-11T16:17:51.538Z,1.80
2023-03-11T16:23:17.553Z,1.08
2023-03-11T16:28:39.975Z,0.46
2023-03-11T16:34:02.229Z,0.21
2023-03-11T16:39:24.470Z,-0.04
2023-03-11T16:44:46.851Z,-0.21
2023-03-11T16:50:09.208Z,-0.41
2023-03-11T16:55:32.394Z,-0.58
2023-03-11T17:00:55.379Z,-0.74
2023-03-11T17:06:22.559Z,-0.75
2023-03-11T17:11:44.749Z,-0.85
2023-03-11T17:17:07.995Z,-0.83
2023-03-11T17:22:32.468Z,-0.77
2023-03-11T17:27:55.065Z,-0.74
2023-03-11T17:33:17.370Z,-0.61
2023-03-11T17:38:40.198Z,-0.53
2023-03-11T17:44:02.562Z,-0.59
2023-03-11T17:49:26.496Z,-0.67
2023-03-11T17:54:48.882Z,-0.71
2023-03-11T18:00:13.135Z,-0.69
2023-03-11T18:05:37.067Z,-0.76
2023-03-11T18:11:07.426Z,-0.84
2023-03-11T18:16:36.434Z,-0.97
2023-03-11T18:21:58.888Z,-1.11
2023-03-11T18:27:21.825Z,-1.18
2023-03-11T18:32:45.198Z,-1.17
2023-03-11T18:38:07.927Z,-1.20
2023-03-11T18:43:31.877Z,-1.32
2023-03-11T18:48:54.723Z,-1.37
2023-03-11T18:54:18.148Z,-1.40
2023-03-11T18:59:40.352Z,-1.45
2023-03-11T19:05:02.852Z,-1.45
2023-03-11T19:10:25.625Z,-1.44
2023-03-11T19:15:54.316Z,-1.43
2023-03-11T19:21:19.063Z,-1.47
2023-03-11T19:26:45.740Z,-1.41
2023-03-11T19:32:06.844Z,-1.36
2023-03-11T19:37:29.200Z,-1.38
2023-03-11T19:42:53.440Z,-1.45
2023-03-11T19:48:16.110Z,-1.57
2023-03-11T19:53:42.313Z,-1.60
2023-03-11T19:59:21.192Z,-1.47
2023-03-11T20:04:43.787Z,-1.64
2023-03-11T20:10:06.614Z,-1.72
2023-03-11T20:15:29.415Z,-1.86
2023-03-11T20:20:52.638Z,-1.97
2023-03-11T20:26:20.194Z,-2.10
2023-03-11T20:31:43.320Z,-2.11
2023-03-11T20:37:05.784Z,-2.16
2023-03-11T20:42:28.257Z,-2.27
2023-03-11T20:47:52.825Z,-2.44
2023-03-11T20:53:15.185Z,-2.45
2023-03-11T20:58:39.168Z,-2.38
2023-03-11T21:04:03.243Z,-2.42
2023-03-11T21:09:27.917Z,-2.47
2023-03-11T21:14:50.337Z,-2.52
2023-03-11T21:20:13.785Z,-2.52
2023-03-11T21:25:38.399Z,-2.33
2023-03-11T21:31:11.347Z,-2.31
2023-03-11T21:36:36.870Z,-2.16
2023-03-11T21:41:59.293Z,-2.09
2023-03-11T21:47:22.178Z,-1.90
2023-03-11T21:52:45.819Z,-1.76
2023-03-11T21:58:08.436Z,-1.60
2023-03-11T22:03:31.234Z,-1.53
2023-03-11T22:08:54.691Z,-1.39
2023-03-11T22:14:17.872Z,-1.32
2023-03-11T22:19:40.725Z,-1.23
2023-03-11T22:25:04.150Z,-1.14
2023-03-11T22:30:28.025Z,-1.09
2023-03-11T22:36:02.283Z,-0.99
2023-03-11T22:41:27.233Z,-0.92
2023-03-11T22:46:50.124Z,-0.80
2023-03-11T22:52:12.942Z,-0.70
2023-03-11T22:57:37.526Z,-0.65
2023-03-11T23:03:02.006Z,-0.59
2023-03-11T23:08:26.573Z,-0.46
2023-03-11T23:13:50.605Z,-0.41
2023-03-11T23:19:14.691Z,-0.46
2023-03-11T23:24:41.341Z,-0.40
2023-03-11T23:30:04.162Z,-0.30
2023-03-11T23:35:27.009Z,-0.31
2023-03-11T23:40:49.626Z,-0.29
2023-03-11T23:46:13.662Z,-0.27
2023-03-11T23:51:36.119Z,-0.37
2023-03-11T23:56:58.682Z,-0.41
